createdAt,value
2019-02-05T00:02:25.606Z,14.00
2019-02-05T00:04:53.305Z,13.37
2019-02-05T00:07:21.036Z,13.77
2019-02-05T00:09:48.961Z,11.70
2019-02-05T00:12:16.677Z,13.67
2019-02-05T00:14:44.413Z,12.87
2019-02-05T00:17:12.134Z,11.83
2019-02-05T00:19:39.865Z,10.43
2019-02-05T00:22:07.601Z,11.37
2019-02-05T00:24:35.352Z,11.53
2019-02-05T00:27:03.064Z,11.70
2019-02-05T00:29:31.583Z,12.37
2019-02-05T00:32:00.317Z,13.73
2019-02-05T00:34:28.111Z,14.57
2019-02-05T00:36:55.761Z,13.97
2019-02-05T00:39:23.484Z,12.20
2019-02-05T00:41:51.189Z,12.03
2019-02-05T00:44:18.942Z,12.53
2019-02-05T00:46:46.652Z,12.87
2019-02-05T00:49:14.381Z,13.13
2019-02-05T00:51:42.113Z,13.97
2019-02-05T00:54:09.845Z,13.63
2019-02-05T00:56:37.577Z,15.47
2019-02-05T00:59:05.608Z,13.87
2019-02-05T01:01:33.313Z,14.87
2019-02-05T01:04:01.089Z,14.87
2019-02-05T01:06:28.817Z,15.90
2019-02-05T01:08:56.552Z,15.30
2019-02-05T01:11:24.297Z,19.17
2019-02-05T01:13:52.014Z,20.17
2019-02-05T01:16:20.036Z,19.73
2019-02-05T01:18:47.737Z,18.00
2019-02-05T01:21:15.487Z,15.83
2019-02-05T01:23:43.237Z,21.10
2019-02-05T01:26:10.950Z,20.80
2019-02-05T01:28:38.689Z,17.70
2019-02-05T01:31:06.476Z,15.90
2019-02-05T01:33:34.426Z,16.43
2019-02-05T01:36:02.129Z,16.53
2019-02-05T01:38:29.847Z,17.03
2019-02-05T01:40:57.586Z,17.17
2019-02-05T01:43:25.289Z,20.20
2019-02-05T01:45:53.017Z,17.50
2019-02-05T01:48:21.217Z,17.73
2019-02-05T01:50:48.965Z,19.03
2019-02-05T01:53:16.681Z,19.83
2019-02-05T01:55:44.891Z,18.97
2019-02-05T01:58:12.614Z,17.77
2019-02-05T02:00:40.317Z,17.73
2019-02-05T02:03:08.048Z,19.80
2019-02-05T02:05:35.764Z,20.77
2019-02-05T02:08:03.505Z,19.70
2019-02-05T02:10:31.258Z,19.63
2019-02-05T02:12:58.956Z,19.13
2019-02-05T02:15:26.720Z,18.23
2019-02-05T02:17:54.433Z,19.27
2019-02-05T02:20:22.187Z,17.13
2019-02-05T02:22:49.888Z,16.07
2019-02-05T02:25:17.626Z,17.17
2019-02-05T02:27:45.425Z,17.17
2019-02-05T02:30:36.344Z,16.93
2019-02-05T02:33:04.516Z,15.63
2019-02-05T02:35:32.524Z,16.73
2019-02-05T02:38:00.474Z,16.53
2019-02-05T02:40:28.317Z,17.13
2019-02-05T02:42:56.047Z,16.17
2019-02-05T02:45:23.751Z,17.13
2019-02-05T02:47:51.483Z,16.77
2019-02-05T02:50:19.227Z,16.10
2019-02-05T02:52:47.362Z,16.57
2019-02-05T02:55:15.085Z,15.97
2019-02-05T02:57:42.817Z,16.83
2019-02-05T03:00:12.956Z,16.27
2019-02-05T03:02:40.770Z,16.63
2019-02-05T03:05:10.557Z,15.27
2019-02-05T03:07:38.254Z,15.43
2019-02-05T03:10:08.942Z,16.10
2019-02-05T03:12:36.682Z,17.17
2019-02-05T03:15:05.136Z,15.13
2019-02-05T03:17:32.849Z,15.97
2019-02-05T03:20:00.678Z,15.57
2019-02-05T03:22:28.390Z,15.83
2019-02-05T03:24:56.113Z,16.43
2019-02-05T03:27:23.839Z,15.73
2019-02-05T03:29:51.756Z,15.03
2019-02-05T03:32:19.530Z,15.83
2019-02-05T03:34:47.202Z,15.90
2019-02-05T03:37:15.013Z,14.60
2019-02-05T03:39:42.738Z,15.63
2019-02-05T03:42:10.438Z,14.13
2019-02-05T03:44:38.185Z,15.83
2019-02-05T03:47:05.903Z,15.90
2019-02-05T03:49:34.027Z,14.27
2019-02-05T03:52:20.922Z,14.90
2019-02-05T03:55:48.581Z,14.80
2019-02-05T03:58:41.725Z,15.07
2019-02-05T04:01:36.017Z,13.77
2019-02-05T04:04:40.267Z,14.67
2019-02-05T04:07:59.460Z,14.97
2019-02-05T04:11:17.570Z,13.83
2019-02-05T04:13:59.958Z,13.40
2019-02-05T04:16:56.661Z,14.60
2019-02-05T04:20:15.184Z,13.77
2019-02-05T04:23:26.423Z,14.30
2019-02-05T04:26:39.131Z,15.27
2019-02-05T04:30:00.521Z,14.50
2019-02-05T04:32:35.042Z,14.07
2019-02-05T04:35:47.061Z,15.07
2019-02-05T04:39:17.301Z,14.00
2019-02-05T04:42:20.029Z,15.13
2019-02-05T04:45:10.362Z,15.93
2019-02-05T04:48:22.810Z,15.77
2019-02-05T04:51:13.234Z,17.37
2019-02-05T04:54:10.481Z,16.07
2019-02-05T04:56:58.586Z,16.13
2019-02-05T05:00:02.536Z,17.30
2019-02-05T05:03:08.090Z,18.57
2019-02-05T05:06:28.304Z,18.10
2019-02-05T05:09:47.143Z,17.47
2019-02-05T05:12:14.889Z,18.17
2019-02-05T05:14:42.797Z,16.80
2019-02-05T05:17:10.514Z,17.63
2019-02-05T05:19:38.238Z,19.47
2019-02-05T05:22:05.956Z,17.33
2019-02-05T05:24:33.705Z,18.87
2019-02-05T05:27:01.426Z,16.90
2019-02-05T05:29:29.176Z,16.43
2019-02-05T05:31:57.044Z,17.37
2019-02-05T05:34:24.752Z,17.23
2019-02-05T05:36:51.335Z,16.93
2019-02-05T05:39:19.438Z,17.03
2019-02-05T05:41:47.169Z,16.77
2019-02-05T05:44:14.869Z,16.00
2019-02-05T05:46:42.602Z,16.93
2019-02-05T05:49:10.316Z,17.60
2019-02-05T05:51:38.456Z,19.20
2019-02-05T05:54:06.201Z,15.90
2019-02-05T05:56:33.926Z,18.47
2019-02-05T05:59:01.668Z,19.20
2019-02-05T06:01:29.405Z,20.23
2019-02-05T06:03:57.169Z,17.53
2019-02-05T06:06:24.909Z,16.93
2019-02-05T06:08:52.701Z,17.10
2019-02-05T06:11:20.757Z,16.27
2019-02-05T06:13:48.489Z,15.70
2019-02-05T06:16:16.237Z,15.27
2019-02-05T06:18:43.953Z,15.00
2019-02-05T06:21:13.627Z,16.80
2019-02-05T06:23:41.255Z,16.97
2019-02-05T06:26:08.998Z,17.63
2019-02-05T06:28:37.050Z,17.43
2019-02-05T06:31:04.778Z,17.07
2019-02-05T06:33:32.563Z,16.17
2019-02-05T06:36:00.351Z,15.97
2019-02-05T06:38:28.104Z,18.00
2019-02-05T06:40:55.830Z,19.60
2019-02-05T06:43:23.605Z,18.53
2019-02-05T06:45:51.317Z,19.77
2019-02-05T06:48:19.034Z,24.40
2019-02-05T06:50:46.773Z,22.17
2019-02-05T06:53:14.520Z,18.03
2019-02-05T06:55:42.221Z,14.30
2019-02-05T06:58:09.952Z,14.30
2019-02-05T07:00:37.689Z,14.50
2019-02-05T07:03:06.430Z,15.83
2019-02-05T07:05:34.452Z,16.43
2019-02-05T07:08:02.184Z,16.70
2019-02-05T07:10:29.989Z,16.27
2019-02-05T07:12:57.732Z,17.27
2019-02-05T07:15:25.483Z,16.33
2019-02-05T07:17:53.181Z,15.50
2019-02-05T07:20:20.925Z,16.30
2019-02-05T07:22:48.645Z,19.32
2019-02-05T07:25:16.705Z,14.20
2019-02-05T07:27:44.438Z,19.45
2019-02-05T07:30:14.986Z,16.97
2019-02-05T07:32:42.713Z,14.37
2019-02-05T07:35:10.502Z,17.80
2019-02-05T07:37:38.513Z,13.57
2019-02-05T07:40:08.153Z,15.37
2019-02-05T07:42:36.086Z,16.50
2019-02-05T07:45:04.734Z,16.13
2019-02-05T07:47:32.481Z,13.93
2019-02-05T07:50:00.336Z,13.97
2019-02-05T07:52:28.053Z,15.20
2019-02-05T07:54:55.773Z,14.13
2019-02-05T07:57:23.549Z,14.97
2019-02-05T07:59:51.266Z,14.00
2019-02-05T08:02:19.307Z,15.43
2019-02-05T08:04:47.033Z,15.80
2019-02-05T08:07:14.761Z,17.10
2019-02-05T08:09:42.489Z,16.30
2019-02-05T08:12:10.250Z,15.77
2019-02-05T08:14:37.954Z,16.80
2019-02-05T08:17:05.673Z,16.90
2019-02-05T08:19:33.437Z,15.63
2019-02-05T08:22:01.465Z,16.10
2019-02-05T08:24:30.826Z,14.97
2019-02-05T08:26:58.566Z,16.83
2019-02-05T08:29:26.318Z,16.73
2019-02-05T08:31:54.023Z,17.03
2019-02-05T08:34:21.752Z,16.17
2019-02-05T08:36:49.499Z,17.23
2019-02-05T08:39:17.956Z,17.43
2019-02-05T08:41:45.741Z,17.93
2019-02-05T08:44:13.739Z,18.50
2019-02-05T08:46:41.483Z,17.93
2019-02-05T08:49:09.185Z,19.00
2019-02-05T08:51:36.893Z,19.07
2019-02-05T08:54:04.620Z,20.97
2019-02-05T08:56:32.333Z,20.47
2019-02-05T08:59:00.113Z,18.87
2019-02-05T09:01:27.842Z,20.13
2019-02-05T09:03:56.026Z,18.20
2019-02-05T09:06:23.748Z,19.70
2019-02-05T09:08:51.555Z,18.57
2019-02-05T09:11:19.277Z,19.47
2019-02-05T09:13:47.029Z,18.07
2019-02-05T09:16:14.757Z,20.43
2019-02-05T09:18:42.465Z,21.40
2019-02-05T09:21:10.197Z,19.07
2019-02-05T09:23:38.217Z,20.20
2019-02-05T09:26:05.955Z,19.90
2019-02-05T09:28:33.700Z,19.30
2019-02-05T09:31:01.480Z,18.23
2019-02-05T09:33:29.278Z,18.73
2019-02-05T09:35:57.084Z,22.03
2019-02-05T09:38:24.838Z,18.97
2019-02-05T09:40:52.538Z,18.83
2019-02-05T09:43:20.282Z,18.63
2019-02-05T09:45:48.015Z,17.67
2019-02-05T09:48:15.729Z,18.83
2019-02-05T09:50:44.891Z,19.80
2019-02-05T09:53:13.681Z,18.00
2019-02-05T09:55:41.409Z,19.07
2019-02-05T09:58:09.117Z,18.53
2019-02-05T10:00:38.247Z,19.30
2019-02-05T10:03:06.839Z,20.00
2019-02-05T10:05:34.617Z,17.30
2019-02-05T10:08:02.342Z,18.37
2019-02-05T10:10:30.081Z,18.43
2019-02-05T10:12:57.798Z,20.43
2019-02-05T10:15:27.805Z,17.80
2019-02-05T10:17:55.551Z,19.70
2019-02-05T10:20:23.412Z,18.87
2019-02-05T10:22:51.161Z,16.37
2019-02-05T10:25:18.874Z,19.20
2019-02-05T10:27:46.639Z,18.50
2019-02-05T10:30:26.089Z,19.13
2019-02-05T10:32:53.849Z,18.10
2019-02-05T10:35:21.924Z,17.20
2019-02-05T10:37:49.882Z,17.63
2019-02-05T10:40:17.670Z,18.40
2019-02-05T10:42:45.365Z,17.83
2019-02-05T10:45:14.145Z,18.03
2019-02-05T10:47:41.857Z,17.20
2019-02-05T10:50:10.918Z,17.90
2019-02-05T10:52:38.952Z,16.07
2019-02-05T10:55:08.179Z,16.93
2019-02-05T10:57:35.897Z,16.20
2019-02-05T11:00:09.138Z,17.50
2019-02-05T11:02:35.277Z,16.47
2019-02-05T11:05:03.033Z,17.23
2019-02-05T11:07:30.756Z,18.60
2019-02-05T11:09:59.773Z,22.27
2019-02-05T11:12:27.565Z,23.20
2019-02-05T11:14:55.393Z,21.50
2019-02-05T11:17:23.121Z,21.85
2019-02-05T11:19:50.871Z,18.33
2019-02-05T11:22:18.581Z,19.77
2019-02-05T11:24:46.304Z,19.17
2019-02-05T11:27:14.025Z,17.23
2019-02-05T11:29:42.041Z,17.80
2019-02-05T11:32:09.794Z,17.57
2019-02-05T11:34:37.518Z,17.57
2019-02-05T11:37:05.280Z,18.17
2019-02-05T11:39:32.982Z,18.07
2019-02-05T11:42:01.049Z,17.60
2019-02-05T11:44:28.797Z,17.03
2019-02-05T11:46:56.513Z,17.40
2019-02-05T11:49:24.565Z,17.00
2019-02-05T11:51:52.292Z,16.20
2019-02-05T11:54:20.139Z,17.10
2019-02-05T11:56:47.850Z,16.63
2019-02-05T11:59:15.577Z,17.20
2019-02-05T12:01:43.298Z,16.40
2019-02-05T12:04:11.029Z,17.60
2019-02-05T12:06:38.767Z,16.53
2019-02-05T12:09:19.352Z,17.40
2019-02-05T12:11:47.101Z,16.13
2019-02-05T12:14:14.874Z,16.63
2019-02-05T12:16:42.579Z,15.60
2019-02-05T12:19:10.315Z,17.63
2019-02-05T12:21:38.017Z,17.90
2019-02-05T12:24:05.760Z,18.23
2019-02-05T12:26:35.369Z,17.77
2019-02-05T12:29:03.975Z,22.40
2019-02-05T12:31:31.705Z,18.33
2019-02-05T12:33:59.409Z,19.43
2019-02-05T12:36:27.313Z,17.73
2019-02-05T12:38:55.026Z,18.93
2019-02-05T12:41:22.785Z,17.40
2019-02-05T12:43:50.825Z,18.77
2019-02-05T12:46:18.540Z,16.37
2019-02-05T12:48:46.289Z,17.00
2019-02-05T12:51:14.018Z,17.73
2019-02-05T12:53:41.757Z,16.93
2019-02-05T12:56:09.464Z,16.10
2019-02-05T12:58:37.203Z,15.47
2019-02-05T13:01:05.345Z,13.83
2019-02-05T13:03:34.288Z,14.40
2019-02-05T13:06:02.017Z,15.67
2019-02-05T13:08:30.163Z,14.87
2019-02-05T13:10:57.881Z,13.90
2019-02-05T13:13:25.605Z,14.30
2019-02-05T13:15:53.357Z,12.97
2019-02-05T13:18:21.389Z,13.30
2019-02-05T13:20:49.095Z,11.63
2019-02-05T13:23:16.834Z,12.17
2019-02-05T13:25:44.573Z,12.00
2019-02-05T13:28:13.165Z,11.37
2019-02-05T13:30:40.881Z,11.07
2019-02-05T13:33:08.982Z,11.23
2019-02-05T13:35:37.237Z,12.20
2019-02-05T13:38:05.425Z,10.97
2019-02-05T13:40:33.165Z,10.33
2019-02-05T13:43:00.961Z,9.83
2019-02-05T13:45:30.110Z,10.63
2019-02-05T13:47:57.842Z,9.30
2019-02-05T13:50:32.999Z,9.43
2019-02-05T13:52:57.157Z,8.40
2019-02-05T13:55:26.787Z,8.40
2019-02-05T13:57:54.517Z,8.90
2019-02-05T14:00:33.389Z,8.90
2019-02-05T14:03:01.141Z,8.47
2019-02-05T14:05:29.061Z,8.83
2019-02-05T14:07:56.709Z,8.17
2019-02-05T14:10:26.837Z,7.60
2019-02-05T14:12:54.551Z,8.90
2019-02-05T14:15:23.413Z,9.57
2019-02-05T14:17:51.216Z,7.50
2019-02-05T14:20:21.033Z,5.70
2019-02-05T14:22:48.770Z,6.20
2019-02-05T14:25:16.521Z,6.07
2019-02-05T14:27:44.236Z,5.77
2019-02-05T14:30:16.101Z,6.80
2019-02-05T14:32:43.845Z,6.10
2019-02-05T14:35:11.586Z,12.80
2019-02-05T14:37:39.692Z,10.70
2019-02-05T14:40:09.400Z,9.63
2019-02-05T14:42:37.160Z,7.90
2019-02-05T14:45:05.913Z,7.53
2019-02-05T14:47:33.723Z,7.87
2019-02-05T14:50:01.528Z,7.13
2019-02-05T14:52:29.233Z,6.73
2019-02-05T14:54:56.961Z,9.53
2019-02-05T14:57:24.701Z,9.43
2019-02-05T14:59:52.433Z,9.07
2019-02-05T15:02:20.160Z,8.97
2019-02-05T15:04:47.874Z,8.73
2019-02-05T15:07:15.624Z,10.83
2019-02-05T15:09:43.321Z,9.30
2019-02-05T15:12:11.053Z,8.57
2019-02-05T15:14:38.782Z,7.57
2019-02-05T15:17:06.553Z,7.33
2019-02-05T15:19:34.349Z,7.70
2019-02-05T15:22:02.174Z,8.47
2019-02-05T15:24:37.071Z,8.57
2019-02-05T15:26:59.574Z,9.60
2019-02-05T15:29:27.513Z,8.87
2019-02-05T15:31:55.193Z,8.33
2019-02-05T15:34:24.919Z,8.77
2019-02-05T15:36:52.669Z,8.37
2019-02-05T15:39:20.473Z,8.97
2019-02-05T15:41:48.188Z,8.60
2019-02-05T15:44:16.014Z,8.17
2019-02-05T15:46:43.668Z,9.47
2019-02-05T15:49:11.408Z,10.50
2019-02-05T15:51:39.166Z,10.20
2019-02-05T15:54:06.869Z,10.37
2019-02-05T15:56:34.700Z,8.97
2019-02-05T15:59:02.445Z,8.60
2019-02-05T16:01:30.177Z,9.70
2019-02-05T16:03:58.074Z,9.23
2019-02-05T16:06:25.790Z,8.53
2019-02-05T16:08:53.540Z,11.53
2019-02-05T16:11:21.274Z,9.70
2019-02-05T16:13:49.097Z,9.73
2019-02-05T16:16:16.901Z,9.73
2019-02-05T16:18:44.829Z,9.77
2019-02-05T16:21:12.585Z,10.07
2019-02-05T16:23:40.301Z,9.53
2019-02-05T16:26:08.061Z,9.93
2019-02-05T16:28:35.837Z,9.27
2019-02-05T16:31:03.549Z,9.93
2019-02-05T16:33:31.605Z,9.07
2019-02-05T16:36:01.478Z,9.20
2019-02-05T16:38:29.601Z,10.30
2019-02-05T16:40:57.322Z,9.03
2019-02-05T16:43:27.956Z,10.47
2019-02-05T16:45:54.622Z,8.73
2019-02-05T16:48:22.362Z,10.00
2019-02-05T16:50:50.350Z,10.00
2019-02-05T16:53:18.068Z,11.30
2019-02-05T16:55:45.790Z,9.93
2019-02-05T16:58:13.512Z,10.43
2019-02-05T17:00:41.236Z,9.97
2019-02-05T17:03:09.001Z,11.93
2019-02-05T17:05:37.617Z,9.93
2019-02-05T17:08:05.382Z,10.40
2019-02-05T17:10:33.104Z,11.37
2019-02-05T17:13:00.818Z,9.97
2019-02-05T17:15:28.577Z,10.20
2019-02-05T17:17:56.293Z,9.70
2019-02-05T17:20:26.227Z,11.27
2019-02-05T17:22:53.917Z,9.97
2019-02-05T17:25:22.642Z,9.03
2019-02-05T17:27:50.385Z,9.40
2019-02-05T17:30:20.389Z,9.97
2019-02-05T17:32:48.138Z,9.43
2019-02-05T17:35:15.854Z,10.97
2019-02-05T17:37:43.594Z,11.23
2019-02-05T17:40:13.893Z,11.47
2019-02-05T17:42:41.810Z,14.40
2019-02-05T17:45:12.881Z,14.67
2019-02-05T17:47:40.598Z,15.30
2019-02-05T17:50:08.333Z,14.07
2019-02-05T17:52:36.072Z,12.97
2019-02-05T17:55:05.085Z,12.33
2019-02-05T17:57:33.197Z,11.20
2019-02-05T18:00:01.213Z,11.80
2019-02-05T18:02:29.213Z,12.00
2019-02-05T18:04:56.913Z,12.17
2019-02-05T18:07:24.638Z,11.57
2019-02-05T18:09:52.356Z,11.40
2019-02-05T18:12:20.181Z,11.60
2019-02-05T18:14:55.317Z,11.83
2019-02-05T18:17:25.796Z,12.43
2019-02-05T18:19:57.252Z,12.67
2019-02-05T18:22:24.857Z,16.13
2019-02-05T18:24:52.584Z,14.20
2019-02-05T18:27:20.295Z,14.47
2019-02-05T18:29:48.030Z,13.17
2019-02-05T18:32:15.943Z,13.50
2019-02-05T18:34:43.795Z,15.67
2019-02-05T18:37:11.781Z,14.43
2019-02-05T18:39:40.161Z,15.27
2019-02-05T18:42:08.003Z,14.70
2019-02-05T18:44:37.696Z,14.13
2019-02-05T18:47:05.482Z,12.13
2019-02-05T18:49:33.289Z,13.27
2019-02-05T18:52:01.021Z,14.23
2019-02-05T18:54:28.729Z,11.93
2019-02-05T18:56:56.473Z,13.03
2019-02-05T18:59:24.290Z,13.17
2019-02-05T19:01:52.250Z,13.03
2019-02-05T19:04:19.972Z,12.53
2019-02-05T19:06:47.802Z,9.67
2019-02-05T19:09:15.777Z,10.40
2019-02-05T19:11:43.487Z,11.53
2019-02-05T19:14:11.218Z,11.67
2019-02-05T19:16:39.097Z,13.17
2019-02-05T19:19:14.572Z,13.23
2019-02-05T19:21:37.141Z,14.10
2019-02-05T19:24:14.169Z,14.80
2019-02-05T19:26:47.249Z,14.47
2019-02-05T19:29:18.922Z,16.13
2019-02-05T19:31:44.741Z,16.60
2019-02-05T19:34:12.702Z,16.27
2019-02-05T19:36:40.453Z,16.43
2019-02-05T19:39:08.297Z,17.40
2019-02-05T19:41:36.238Z,15.50
2019-02-05T19:44:04.210Z,19.27
2019-02-05T19:46:57.203Z,20.70
2019-02-05T19:49:28.377Z,21.77
2019-02-05T19:51:56.259Z,25.03
2019-02-05T19:54:24.349Z,26.50
2019-02-05T19:56:52.508Z,23.03
2019-02-05T19:59:20.837Z,24.47
2019-02-05T20:01:48.545Z,24.67
2019-02-05T20:04:16.282Z,24.17
2019-02-05T20:06:44.325Z,22.27
2019-02-05T20:09:13.256Z,23.37
2019-02-05T20:11:41.408Z,21.70
2019-02-05T20:14:11.455Z,20.60
2019-02-05T20:16:41.882Z,21.37
2019-02-05T20:19:09.946Z,20.03
2019-02-05T20:21:38.182Z,22.67
2019-02-05T20:24:05.880Z,22.60
2019-02-05T20:26:33.629Z,21.97
2019-02-05T20:29:01.671Z,25.10
2019-02-05T20:31:29.505Z,25.13
2019-02-05T20:33:57.653Z,26.00
2019-02-05T20:36:25.414Z,26.50
2019-02-05T20:38:53.210Z,29.63
2019-02-05T20:41:21.203Z,24.87
2019-02-05T20:43:49.067Z,25.40
2019-02-05T20:46:16.782Z,25.53
2019-02-05T20:48:44.505Z,22.20
2019-02-05T20:51:12.312Z,27.90
2019-02-05T20:53:40.140Z,23.77
2019-02-05T20:56:07.833Z,21.27
2019-02-05T20:58:35.567Z,26.90
2019-02-05T21:01:03.595Z,23.30
2019-02-05T21:03:31.302Z,21.97
2019-02-05T21:05:59.025Z,23.00
2019-02-05T21:08:26.722Z,29.60
2019-02-05T21:10:54.454Z,24.23
2019-02-05T21:13:22.265Z,32.20
2019-02-05T21:15:49.965Z,27.33
2019-02-05T21:18:17.708Z,26.50
2019-02-05T21:20:45.384Z,28.77
2019-02-05T21:23:13.133Z,30.70
2019-02-05T21:25:40.846Z,29.30
2019-02-05T21:28:08.601Z,27.30
2019-02-05T21:30:36.389Z,27.47
2019-02-05T21:33:04.281Z,27.70
2019-02-05T21:35:31.990Z,27.13
2019-02-05T21:37:59.911Z,25.90
2019-02-05T21:40:27.649Z,24.03
2019-02-05T21:42:55.446Z,28.00
2019-02-05T21:45:23.512Z,25.40
2019-02-05T21:47:51.235Z,23.50
2019-02-05T21:50:19.633Z,24.60
2019-02-05T21:52:48.659Z,24.83
2019-02-05T21:55:16.970Z,24.70
2019-02-05T21:57:44.750Z,23.07
2019-02-05T22:00:17.669Z,20.33
2019-02-05T22:02:45.485Z,20.17
2019-02-05T22:05:13.350Z,21.43
2019-02-05T22:07:41.137Z,22.07
2019-02-05T22:10:09.233Z,21.03
2019-02-05T22:12:37.373Z,21.33
2019-02-05T22:15:06.688Z,21.60
2019-02-05T22:17:34.568Z,21.17
2019-02-05T22:20:02.317Z,17.33
2019-02-05T22:22:30.080Z,19.40
2019-02-05T22:24:57.892Z,18.37
2019-02-05T22:27:25.617Z,17.47
2019-02-05T22:29:53.357Z,17.60
2019-02-05T22:32:21.272Z,16.87
2019-02-05T22:34:49.322Z,17.17
2019-02-05T22:37:17.048Z,16.03
2019-02-05T22:39:44.754Z,20.82
2019-02-05T22:42:12.508Z,17.80
2019-02-05T22:44:40.597Z,18.03
2019-02-05T22:47:08.318Z,17.67
2019-02-05T22:52:13.871Z,17.20
2019-02-05T22:54:41.573Z,19.10
2019-02-05T22:57:09.309Z,18.87
2019-02-05T22:59:37.326Z,18.33
2019-02-05T23:02:05.600Z,19.40
2019-02-05T23:05:05.159Z,19.90
2019-02-05T23:07:32.884Z,21.30
2019-02-05T23:10:27.544Z,21.40
2019-02-05T23:13:00.951Z,21.23
2019-02-05T23:15:29.249Z,22.83
2019-02-05T23:17:56.936Z,22.43
2019-02-05T23:20:24.729Z,21.30
2019-02-05T23:22:52.497Z,22.07
2019-02-05T23:25:20.262Z,23.23
2019-02-05T23:27:48.069Z,23.40
2019-02-05T23:30:24.605Z,20.87
2019-02-05T23:32:52.309Z,22.33
2019-02-05T23:35:20.054Z,22.53
2019-02-05T23:37:48.070Z,23.83
2019-02-05T23:40:15.804Z,23.17
2019-02-05T23:42:43.514Z,24.37
2019-02-05T23:45:11.460Z,25.10
2019-02-05T23:47:39.177Z,23.07
2019-02-05T23:50:09.084Z,23.80
2019-02-05T23:52:36.797Z,22.40
2019-02-05T23:55:05.814Z,23.03
2019-02-05T23:57:33.526Z,21.90
